sensor_id;sensor_type;location;lat;lon;timestamp;P1;durP1;ratioP1;P2;durP2;ratioP2
39502;SDS011;26970;49.900;10.774;2024-02-21T00:01:21;6.50;;;3.28;;
39502;SDS011;26970;49.900;10.774;2024-02-21T00:03:47;10.23;;;3.20;;
39502;SDS011;26970;49.900;10.774;2024-02-21T00:06:13;17.00;;;3.95;;
39502;SDS011;26970;49.900;10.774;2024-02-21T00:08:38;11.52;;;3.83;;
39502;SDS011;26970;49.900;10.774;2024-02-21T00:11:04;12.52;;;3.92;;
39502;SDS011;26970;49.900;10.774;2024-02-21T00:13:29;13.10;;;3.72;;
39502;SDS011;26970;49.900;10.774;2024-02-21T00:15:55;9.70;;;3.55;;
39502;SDS011;26970;49.900;10.774;2024-02-21T00:18:21;14.10;;;3.38;;
39502;SDS011;26970;49.900;10.774;2024-02-21T00:20:47;11.90;;;3.90;;
39502;SDS011;26970;49.900;10.774;2024-02-21T00:23:12;10.20;;;3.17;;
39502;SDS011;26970;49.900;10.774;2024-02-21T00:25:38;17.77;;;4.47;;
39502;SDS011;26970;49.900;10.774;2024-02-21T00:28:03;12.45;;;3.30;;
39502;SDS011;26970;49.900;10.774;2024-02-21T00:30:30;14.38;;;3.42;;
39502;SDS011;26970;49.900;10.774;2024-02-21T00:32:56;17.77;;;3.35;;
39502;SDS011;26970;49.900;10.774;2024-02-21T00:35:22;10.48;;;3.30;;
39502;SDS011;26970;49.900;10.774;2024-02-21T00:37:48;7.72;;;3.10;;
39502;SDS011;26970;49.900;10.774;2024-02-21T00:40:13;8.73;;;3.50;;
39502;SDS011;26970;49.900;10.774;2024-02-21T00:42:44;11.80;;;3.67;;
39502;SDS011;26970;49.900;10.774;2024-02-21T00:45:10;11.77;;;4.13;;
39502;SDS011;26970;49.900;10.774;2024-02-21T00:47:36;13.38;;;3.70;;
39502;SDS011;26970;49.900;10.774;2024-02-21T00:50:02;8.95;;;3.63;;
39502;SDS011;26970;49.900;10.774;2024-02-21T00:52:27;15.93;;;3.75;;
39502;SDS011;26970;49.900;10.774;2024-02-21T00:54:53;8.63;;;3.75;;
39502;SDS011;26970;49.900;10.774;2024-02-21T00:57:18;14.02;;;4.20;;
39502;SDS011;26970;49.900;10.774;2024-02-21T00:59:44;12.90;;;3.05;;
39502;SDS011;26970;49.900;10.774;2024-02-21T01:02:10;7.90;;;3.53;;
39502;SDS011;26970;49.900;10.774;2024-02-21T01:04:35;13.20;;;3.63;;
39502;SDS011;26970;49.900;10.774;2024-02-21T01:07:01;9.43;;;2.92;;
39502;SDS011;26970;49.900;10.774;2024-02-21T01:09:27;11.05;;;3.80;;
39502;SDS011;26970;49.900;10.774;2024-02-21T01:11:52;14.63;;;3.97;;
39502;SDS011;26970;49.900;10.774;2024-02-21T01:14:18;12.52;;;4.40;;
39502;SDS011;26970;49.900;10.774;2024-02-21T01:16:43;10.77;;;3.33;;
39502;SDS011;26970;49.900;10.774;2024-02-21T01:19:09;15.18;;;3.70;;
39502;SDS011;26970;49.900;10.774;2024-02-21T01:21:35;13.98;;;3.53;;
39502;SDS011;26970;49.900;10.774;2024-02-21T01:24:00;15.45;;;3.40;;
39502;SDS011;26970;49.900;10.774;2024-02-21T01:26:26;9.23;;;3.10;;
39502;SDS011;26970;49.900;10.774;2024-02-21T01:28:51;16.38;;;3.28;;
39502;SDS011;26970;49.900;10.774;2024-02-21T01:31:17;9.35;;;3.70;;
39502;SDS011;26970;49.900;10.774;2024-02-21T01:33:42;16.77;;;3.88;;
39502;SDS011;26970;49.900;10.774;2024-02-21T01:36:08;9.48;;;3.28;;
39502;SDS011;26970;49.900;10.774;2024-02-21T01:38:33;14.75;;;3.80;;
39502;SDS011;26970;49.900;10.774;2024-02-21T01:40:59;11.38;;;3.70;;
39502;SDS011;26970;49.900;10.774;2024-02-21T01:43:25;12.48;;;3.80;;
39502;SDS011;26970;49.900;10.774;2024-02-21T01:45:54;9.02;;;3.22;;
39502;SDS011;26970;49.900;10.774;2024-02-21T01:48:24;18.00;;;3.75;;
39502;SDS011;26970;49.900;10.774;2024-02-21T01:50:50;5.72;;;3.08;;
39502;SDS011;26970;49.900;10.774;2024-02-21T01:53:18;12.88;;;3.55;;
39502;SDS011;26970;49.900;10.774;2024-02-21T01:55:46;13.80;;;3.47;;
39502;SDS011;26970;49.900;10.774;2024-02-21T01:58:16;12.00;;;3.55;;
39502;SDS011;26970;49.900;10.774;2024-02-21T02:00:42;13.40;;;4.20;;
39502;SDS011;26970;49.900;10.774;2024-02-21T02:03:11;10.68;;;3.50;;
39502;SDS011;26970;49.900;10.774;2024-02-21T02:05:47;16.33;;;3.78;;
39502;SDS011;26970;49.900;10.774;2024-02-21T02:08:14;9.90;;;4.20;;
39502;SDS011;26970;49.900;10.774;2024-02-21T02:10:40;13.82;;;3.80;;
39502;SDS011;26970;49.900;10.774;2024-02-21T02:13:06;9.20;;;3.75;;
39502;SDS011;26970;49.900;10.774;2024-02-21T02:16:05;11.73;;;3.80;;
39502;SDS011;26970;49.900;10.774;2024-02-21T02:18:24;9.77;;;3.03;;
39502;SDS011;26970;49.900;10.774;2024-02-21T02:20:49;11.48;;;3.78;;
39502;SDS011;26970;49.900;10.774;2024-02-21T02:25:46;18.27;;;3.95;;
39502;SDS011;26970;49.900;10.774;2024-02-21T02:28:17;8.95;;;3.50;;
39502;SDS011;26970;49.900;10.774;2024-02-21T02:30:42;7.93;;;3.45;;
39502;SDS011;26970;49.900;10.774;2024-02-21T02:33:08;11.15;;;3.83;;
39502;SDS011;26970;49.900;10.774;2024-02-21T02:35:34;9.30;;;3.53;;
39502;SDS011;26970;49.900;10.774;2024-02-21T02:38:03;12.48;;;3.72;;
39502;SDS011;26970;49.900;10.774;2024-02-21T02:40:29;14.82;;;4.00;;
39502;SDS011;26970;49.900;10.774;2024-02-21T02:42:55;15.85;;;3.72;;
39502;SDS011;26970;49.900;10.774;2024-02-21T02:45:21;18.15;;;4.45;;
39502;SDS011;26970;49.900;10.774;2024-02-21T02:47:53;10.75;;;3.72;;
39502;SDS011;26970;49.900;10.774;2024-02-21T02:50:20;12.93;;;3.72;;
39502;SDS011;26970;49.900;10.774;2024-02-21T02:52:45;13.68;;;3.67;;
39502;SDS011;26970;49.900;10.774;2024-02-21T02:55:11;16.13;;;4.10;;
39502;SDS011;26970;49.900;10.774;2024-02-21T02:57:36;15.10;;;4.05;;
39502;SDS011;26970;49.900;10.774;2024-02-21T03:00:03;14.43;;;4.10;;
39502;SDS011;26970;49.900;10.774;2024-02-21T03:02:29;11.98;;;3.80;;
39502;SDS011;26970;49.900;10.774;2024-02-21T03:04:56;14.93;;;4.32;;
39502;SDS011;26970;49.900;10.774;2024-02-21T03:07:22;15.10;;;4.35;;
39502;SDS011;26970;49.900;10.774;2024-02-21T03:09:49;15.50;;;4.50;;
39502;SDS011;26970;49.900;10.774;2024-02-21T03:12:15;12.95;;;4.20;;
39502;SDS011;26970;49.900;10.774;2024-02-21T03:14:49;13.35;;;3.30;;
39502;SDS011;26970;49.900;10.774;2024-02-21T03:17:14;10.63;;;4.20;;
39502;SDS011;26970;49.900;10.774;2024-02-21T03:19:40;9.98;;;3.67;;
39502;SDS011;26970;49.900;10.774;2024-02-21T03:22:05;14.32;;;3.75;;
39502;SDS011;26970;49.900;10.774;2024-02-21T03:24:31;10.23;;;3.85;;
39502;SDS011;26970;49.900;10.774;2024-02-21T03:26:56;15.30;;;4.50;;
39502;SDS011;26970;49.900;10.774;2024-02-21T03:29:23;9.27;;;3.72;;
39502;SDS011;26970;49.900;10.774;2024-02-21T03:31:50;10.88;;;4.40;;
39502;SDS011;26970;49.900;10.774;2024-02-21T03:34:15;15.52;;;4.05;;
39502;SDS011;26970;49.900;10.774;2024-02-21T03:36:41;18.40;;;4.38;;
39502;SDS011;26970;49.900;10.774;2024-02-21T03:39:06;12.60;;;4.43;;
39502;SDS011;26970;49.900;10.774;2024-02-21T03:41:34;12.50;;;4.15;;
39502;SDS011;26970;49.900;10.774;2024-02-21T03:44:00;12.95;;;5.25;;
39502;SDS011;26970;49.900;10.774;2024-02-21T03:46:25;14.13;;;4.18;;
39502;SDS011;26970;49.900;10.774;2024-02-21T03:48:51;13.70;;;4.43;;
39502;SDS011;26970;49.900;10.774;2024-02-21T03:51:17;19.65;;;4.63;;
39502;SDS011;26970;49.900;10.774;2024-02-21T03:53:42;11.10;;;3.72;;
39502;SDS011;26970;49.900;10.774;2024-02-21T03:56:08;12.00;;;4.18;;
39502;SDS011;26970;49.900;10.774;2024-02-21T03:58:33;10.40;;;3.90;;
39502;SDS011;26970;49.900;10.774;2024-02-21T04:01:00;8.77;;;4.18;;
39502;SDS011;26970;49.900;10.774;2024-02-21T04:03:26;9.20;;;4.28;;
39502;SDS011;26970;49.900;10.774;2024-02-21T04:05:52;12.68;;;3.85;;
39502;SDS011;26970;49.900;10.774;2024-02-21T04:08:17;11.38;;;4.15;;
39502;SDS011;26970;49.900;10.774;2024-02-21T04:10:43;10.15;;;4.25;;
39502;SDS011;26970;49.900;10.774;2024-02-21T04:13:09;12.55;;;4.40;;
39502;SDS011;26970;49.900;10.774;2024-02-21T04:15:34;11.38;;;4.43;;
39502;SDS011;26970;49.900;10.774;2024-02-21T04:18:00;15.57;;;4.05;;
39502;SDS011;26970;49.900;10.774;2024-02-21T04:20:26;12.48;;;4.30;;
39502;SDS011;26970;49.900;10.774;2024-02-21T04:22:51;11.00;;;4.00;;
39502;SDS011;26970;49.900;10.774;2024-02-21T04:25:17;16.38;;;4.53;;
39502;SDS011;26970;49.900;10.774;2024-02-21T04:27:43;15.73;;;4.05;;
39502;SDS011;26970;49.900;10.774;2024-02-21T04:30:09;12.48;;;4.50;;
39502;SDS011;26970;49.900;10.774;2024-02-21T04:32:35;18.15;;;4.18;;
39502;SDS011;26970;49.900;10.774;2024-02-21T04:35:00;13.82;;;4.40;;
39502;SDS011;26970;49.900;10.774;2024-02-21T04:37:26;14.18;;;4.80;;
39502;SDS011;26970;49.900;10.774;2024-02-21T04:39:51;14.00;;;4.40;;
39502;SDS011;26970;49.900;10.774;2024-02-21T04:42:17;15.05;;;4.55;;
39502;SDS011;26970;49.900;10.774;2024-02-21T04:44:42;12.63;;;4.40;;
39502;SDS011;26970;49.900;10.774;2024-02-21T04:47:08;11.98;;;4.47;;
39502;SDS011;26970;49.900;10.774;2024-02-21T04:49:34;11.73;;;4.68;;
39502;SDS011;26970;49.900;10.774;2024-02-21T04:52:00;7.22;;;4.13;;
39502;SDS011;26970;49.900;10.774;2024-02-21T04:54:26;9.75;;;3.63;;
39502;SDS011;26970;49.900;10.774;2024-02-21T04:56:51;10.98;;;3.97;;
39502;SDS011;26970;49.900;10.774;2024-02-21T04:59:17;14.43;;;4.75;;
39502;SDS011;26970;49.900;10.774;2024-02-21T05:01:43;18.27;;;4.93;;
39502;SDS011;26970;49.900;10.774;2024-02-21T05:04:08;13.68;;;4.22;;
39502;SDS011;26970;49.900;10.774;2024-02-21T05:06:40;15.95;;;4.90;;
39502;SDS011;26970;49.900;10.774;2024-02-21T05:09:07;15.32;;;4.90;;
39502;SDS011;26970;49.900;10.774;2024-02-21T05:11:36;16.38;;;4.65;;
39502;SDS011;26970;49.900;10.774;2024-02-21T05:14:02;13.65;;;4.45;;
39502;SDS011;26970;49.900;10.774;2024-02-21T05:16:29;14.45;;;4.65;;
39502;SDS011;26970;49.900;10.774;2024-02-21T05:18:54;15.38;;;4.85;;
39502;SDS011;26970;49.900;10.774;2024-02-21T05:21:21;12.68;;;4.60;;
39502;SDS011;26970;49.900;10.774;2024-02-21T05:23:48;9.77;;;3.90;;
39502;SDS011;26970;49.900;10.774;2024-02-21T05:26:20;9.77;;;4.25;;
39502;SDS011;26970;49.900;10.774;2024-02-21T05:28:49;11.35;;;4.53;;
39502;SDS011;26970;49.900;10.774;2024-02-21T05:31:15;17.73;;;5.13;;
39502;SDS011;26970;49.900;10.774;2024-02-21T05:33:43;25.88;;;9.23;;
39502;SDS011;26970;49.900;10.774;2024-02-21T05:36:09;28.00;;;9.77;;
39502;SDS011;26970;49.900;10.774;2024-02-21T05:38:34;36.95;;;12.80;;
39502;SDS011;26970;49.900;10.774;2024-02-21T05:41:00;47.90;;;15.57;;
39502;SDS011;26970;49.900;10.774;2024-02-21T05:43:26;15.48;;;6.10;;
39502;SDS011;26970;49.900;10.774;2024-02-21T05:45:52;86.82;;;32.40;;
39502;SDS011;26970;49.900;10.774;2024-02-21T05:48:17;56.72;;;22.10;;
39502;SDS011;26970;49.900;10.774;2024-02-21T05:50:43;18.05;;;9.50;;
39502;SDS011;26970;49.900;10.774;2024-02-21T05:53:08;14.93;;;5.72;;
39502;SDS011;26970;49.900;10.774;2024-02-21T05:55:35;17.98;;;4.45;;
39502;SDS011;26970;49.900;10.774;2024-02-21T05:58:00;13.50;;;5.07;;
39502;SDS011;26970;49.900;10.774;2024-02-21T06:00:27;11.07;;;6.25;;
39502;SDS011;26970;49.900;10.774;2024-02-21T06:02:53;44.15;;;22.50;;
39502;SDS011;26970;49.900;10.774;2024-02-21T06:05:18;27.35;;;11.55;;
39502;SDS011;26970;49.900;10.774;2024-02-21T06:07:44;21.95;;;9.93;;
39502;SDS011;26970;49.900;10.774;2024-02-21T06:10:09;42.63;;;25.15;;
39502;SDS011;26970;49.900;10.774;2024-02-21T06:12:35;22.15;;;8.65;;
39502;SDS011;26970;49.900;10.774;2024-02-21T06:15:01;21.95;;;10.13;;
39502;SDS011;26970;49.900;10.774;2024-02-21T06:17:26;18.13;;;8.02;;
39502;SDS011;26970;49.900;10.774;2024-02-21T06:19:52;15.80;;;6.35;;
39502;SDS011;26970;49.900;10.774;2024-02-21T06:22:17;15.80;;;7.72;;
39502;SDS011;26970;49.900;10.774;2024-02-21T06:24:43;14.30;;;7.57;;
39502;SDS011;26970;49.900;10.774;2024-02-21T06:27:09;19.48;;;9.93;;
39502;SDS011;26970;49.900;10.774;2024-02-21T06:29:36;14.23;;;6.35;;
39502;SDS011;26970;49.900;10.774;2024-02-21T06:32:01;16.40;;;7.03;;
39502;SDS011;26970;49.900;10.774;2024-02-21T06:34:27;19.10;;;6.38;;
39502;SDS011;26970;49.900;10.774;2024-02-21T06:36:53;13.57;;;6.15;;
39502;SDS011;26970;49.900;10.774;2024-02-21T06:39:18;14.10;;;6.03;;
39502;SDS011;26970;49.900;10.774;2024-02-21T06:41:44;21.08;;;6.80;;
39502;SDS011;26970;49.900;10.774;2024-02-21T06:44:10;19.98;;;7.40;;
39502;SDS011;26970;49.900;10.774;2024-02-21T06:46:35;15.85;;;6.00;;
39502;SDS011;26970;49.900;10.774;2024-02-21T06:49:01;11.98;;;5.30;;
39502;SDS011;26970;49.900;10.774;2024-02-21T06:51:28;19.55;;;6.93;;
39502;SDS011;26970;49.900;10.774;2024-02-21T06:53:54;16.30;;;6.07;;
39502;SDS011;26970;49.900;10.774;2024-02-21T06:56:20;12.63;;;5.10;;
39502;SDS011;26970;49.900;10.774;2024-02-21T06:58:51;18.50;;;5.70;;
39502;SDS011;26970;49.900;10.774;2024-02-21T07:01:17;10.90;;;5.55;;
39502;SDS011;26970;49.900;10.774;2024-02-21T07:03:42;17.88;;;6.55;;
39502;SDS011;26970;49.900;10.774;2024-02-21T07:06:08;13.88;;;5.13;;
39502;SDS011;26970;49.900;10.774;2024-02-21T07:08:33;18.10;;;5.95;;
39502;SDS011;26970;49.900;10.774;2024-02-21T07:10:59;15.82;;;5.43;;
39502;SDS011;26970;49.900;10.774;2024-02-21T07:13:24;17.50;;;5.43;;
39502;SDS011;26970;49.900;10.774;2024-02-21T07:15:50;19.70;;;5.80;;
39502;SDS011;26970;49.900;10.774;2024-02-21T07:18:15;15.18;;;5.70;;
39502;SDS011;26970;49.900;10.774;2024-02-21T07:20:41;13.25;;;6.18;;
39502;SDS011;26970;49.900;10.774;2024-02-21T07:23:09;16.77;;;6.13;;
39502;SDS011;26970;49.900;10.774;2024-02-21T07:25:35;12.82;;;5.30;;
39502;SDS011;26970;49.900;10.774;2024-02-21T07:28:00;18.60;;;5.57;;
39502;SDS011;26970;49.900;10.774;2024-02-21T07:30:26;13.18;;;5.20;;
39502;SDS011;26970;49.900;10.774;2024-02-21T07:32:51;13.30;;;5.72;;
39502;SDS011;26970;49.900;10.774;2024-02-21T07:35:17;17.98;;;6.50;;
39502;SDS011;26970;49.900;10.774;2024-02-21T07:37:43;17.35;;;6.15;;
39502;SDS011;26970;49.900;10.774;2024-02-21T07:40:12;13.35;;;5.50;;
39502;SDS011;26970;49.900;10.774;2024-02-21T07:42:39;10.63;;;5.28;;
39502;SDS011;26970;49.900;10.774;2024-02-21T07:45:04;14.25;;;5.55;;
39502;SDS011;26970;49.900;10.774;2024-02-21T07:47:31;13.38;;;5.28;;
39502;SDS011;26970;49.900;10.774;2024-02-21T07:49:56;19.00;;;5.90;;
39502;SDS011;26970;49.900;10.774;2024-02-21T07:52:22;10.10;;;4.85;;
39502;SDS011;26970;49.900;10.774;2024-02-21T07:54:47;15.00;;;6.55;;
39502;SDS011;26970;49.900;10.774;2024-02-21T07:57:13;12.60;;;5.22;;
39502;SDS011;26970;49.900;10.774;2024-02-21T07:59:38;13.15;;;5.28;;
39502;SDS011;26970;49.900;10.774;2024-02-21T08:02:04;10.95;;;4.88;;
39502;SDS011;26970;49.900;10.774;2024-02-21T08:04:31;13.02;;;5.03;;
39502;SDS011;26970;49.900;10.774;2024-02-21T08:06:57;15.95;;;5.13;;
39502;SDS011;26970;49.900;10.774;2024-02-21T08:09:26;13.60;;;5.28;;
39502;SDS011;26970;49.900;10.774;2024-02-21T08:11:52;12.88;;;5.20;;
39502;SDS011;26970;49.900;10.774;2024-02-21T08:14:18;8.75;;;4.75;;
39502;SDS011;26970;49.900;10.774;2024-02-21T08:16:44;10.80;;;4.90;;
39502;SDS011;26970;49.900;10.774;2024-02-21T08:19:10;13.60;;;4.93;;
39502;SDS011;26970;49.900;10.774;2024-02-21T08:21:35;15.73;;;5.10;;
39502;SDS011;26970;49.900;10.774;2024-02-21T08:24:01;10.65;;;5.35;;
39502;SDS011;26970;49.900;10.774;2024-02-21T08:26:27;14.40;;;4.63;;
39502;SDS011;26970;49.900;10.774;2024-02-21T08:28:55;12.60;;;4.75;;
39502;SDS011;26970;49.900;10.774;2024-02-21T08:31:23;13.20;;;5.15;;
39502;SDS011;26970;49.900;10.774;2024-02-21T08:33:49;13.25;;;5.07;;
39502;SDS011;26970;49.900;10.774;2024-02-21T08:36:18;14.82;;;5.40;;
39502;SDS011;26970;49.900;10.774;2024-02-21T08:38:47;15.63;;;4.93;;
39502;SDS011;26970;49.900;10.774;2024-02-21T08:41:12;15.50;;;5.07;;
39502;SDS011;26970;49.900;10.774;2024-02-21T08:43:39;12.38;;;4.90;;
39502;SDS011;26970;49.900;10.774;2024-02-21T08:46:04;17.50;;;5.25;;
39502;SDS011;26970;49.900;10.774;2024-02-21T08:48:30;10.52;;;4.63;;
39502;SDS011;26970;49.900;10.774;2024-02-21T08:50:56;13.10;;;4.78;;
39502;SDS011;26970;49.900;10.774;2024-02-21T08:53:21;9.48;;;4.97;;
39502;SDS011;26970;49.900;10.774;2024-02-21T08:55:47;13.45;;;6.03;;
39502;SDS011;26970;49.900;10.774;2024-02-21T08:58:12;15.57;;;5.07;;
39502;SDS011;26970;49.900;10.774;2024-02-21T09:00:39;11.27;;;5.03;;
39502;SDS011;26970;49.900;10.774;2024-02-21T09:03:05;18.83;;;5.70;;
39502;SDS011;26970;49.900;10.774;2024-02-21T09:05:30;18.23;;;5.63;;
39502;SDS011;26970;49.900;10.774;2024-02-21T09:07:56;13.20;;;5.45;;
39502;SDS011;26970;49.900;10.774;2024-02-21T09:10:21;9.40;;;3.92;;
39502;SDS011;26970;49.900;10.774;2024-02-21T09:12:47;12.63;;;4.30;;
39502;SDS011;26970;49.900;10.774;2024-02-21T09:15:12;12.38;;;3.78;;
39502;SDS011;26970;49.900;10.774;2024-02-21T09:17:38;10.93;;;4.20;;
39502;SDS011;26970;49.900;10.774;2024-02-21T09:20:04;14.10;;;5.03;;
39502;SDS011;26970;49.900;10.774;2024-02-21T09:22:32;11.13;;;5.65;;
39502;SDS011;26970;49.900;10.774;2024-02-21T09:24:59;11.30;;;4.30;;
39502;SDS011;26970;49.900;10.774;2024-02-21T09:27:25;9.90;;;3.70;;
39502;SDS011;26970;49.900;10.774;2024-02-21T09:29:51;14.82;;;3.78;;
39502;SDS011;26970;49.900;10.774;2024-02-21T09:32:17;8.50;;;3.25;;
39502;SDS011;26970;49.900;10.774;2024-02-21T09:34:44;8.63;;;3.95;;
39502;SDS011;26970;49.900;10.774;2024-02-21T09:37:10;8.32;;;3.58;;
39502;SDS011;26970;49.900;10.774;2024-02-21T09:39:35;8.60;;;3.35;;
39502;SDS011;26970;49.900;10.774;2024-02-21T09:42:04;9.27;;;4.07;;
39502;SDS011;26970;49.900;10.774;2024-02-21T09:44:38;9.05;;;3.45;;
39502;SDS011;26970;49.900;10.774;2024-02-21T09:47:12;9.00;;;3.42;;
39502;SDS011;26970;49.900;10.774;2024-02-21T09:49:44;8.55;;;2.95;;
39502;SDS011;26970;49.900;10.774;2024-02-21T09:52:10;6.40;;;2.83;;
39502;SDS011;26970;49.900;10.774;2024-02-21T09:54:39;8.95;;;2.90;;
39502;SDS011;26970;49.900;10.774;2024-02-21T09:57:07;6.82;;;3.10;;
39502;SDS011;26970;49.900;10.774;2024-02-21T09:59:33;8.88;;;2.80;;
39502;SDS011;26970;49.900;10.774;2024-02-21T10:01:59;8.57;;;3.05;;
39502;SDS011;26970;49.900;10.774;2024-02-21T10:04:25;9.27;;;3.65;;
39502;SDS011;26970;49.900;10.774;2024-02-21T10:06:51;12.63;;;3.90;;
39502;SDS011;26970;49.900;10.774;2024-02-21T10:09:24;6.18;;;2.70;;
39502;SDS011;26970;49.900;10.774;2024-02-21T10:11:54;9.32;;;2.80;;
39502;SDS011;26970;49.900;10.774;2024-02-21T10:14:21;5.70;;;2.63;;
39502;SDS011;26970;49.900;10.774;2024-02-21T10:16:47;13.95;;;2.67;;
39502;SDS011;26970;49.900;10.774;2024-02-21T10:19:17;4.80;;;2.20;;
39502;SDS011;26970;49.900;10.774;2024-02-21T10:24:32;11.23;;;3.40;;
39502;SDS011;26970;49.900;10.774;2024-02-21T10:27:00;12.30;;;2.60;;
39502;SDS011;26970;49.900;10.774;2024-02-21T10:29:29;9.77;;;2.33;;
39502;SDS011;26970;49.900;10.774;2024-02-21T10:32:19;5.25;;;2.40;;
39502;SDS011;26970;49.900;10.774;2024-02-21T10:34:44;8.50;;;2.53;;
39502;SDS011;26970;49.900;10.774;2024-02-21T10:37:11;8.27;;;2.67;;
39502;SDS011;26970;49.900;10.774;2024-02-21T10:39:37;6.97;;;2.30;;
39502;SDS011;26970;49.900;10.774;2024-02-21T10:42:04;7.72;;;2.50;;
39502;SDS011;26970;49.900;10.774;2024-02-21T10:44:30;7.10;;;2.60;;
39502;SDS011;26970;49.900;10.774;2024-02-21T10:46:57;8.00;;;2.45;;
39502;SDS011;26970;49.900;10.774;2024-02-21T10:49:24;6.63;;;1.80;;
39502;SDS011;26970;49.900;10.774;2024-02-21T10:52:06;6.82;;;2.42;;
39502;SDS011;26970;49.900;10.774;2024-02-21T10:57:21;8.30;;;2.25;;
39502;SDS011;26970;49.900;10.774;2024-02-21T10:59:48;8.88;;;2.70;;
39502;SDS011;26970;49.900;10.774;2024-02-21T11:02:15;7.45;;;2.47;;
39502;SDS011;26970;49.900;10.774;2024-02-21T11:04:41;11.70;;;2.58;;
39502;SDS011;26970;49.900;10.774;2024-02-21T11:07:08;6.53;;;2.55;;
39502;SDS011;26970;49.900;10.774;2024-02-21T11:09:34;11.07;;;2.50;;
39502;SDS011;26970;49.900;10.774;2024-02-21T11:12:03;7.07;;;2.00;;
39502;SDS011;26970;49.900;10.774;2024-02-21T11:14:29;6.95;;;2.25;;
39502;SDS011;26970;49.900;10.774;2024-02-21T11:17:01;6.90;;;2.42;;
39502;SDS011;26970;49.900;10.774;2024-02-21T11:19:28;7.57;;;2.33;;
39502;SDS011;26970;49.900;10.774;2024-02-21T11:21:55;7.93;;;2.50;;
39502;SDS011;26970;49.900;10.774;2024-02-21T11:24:25;4.40;;;2.17;;
39502;SDS011;26970;49.900;10.774;2024-02-21T11:27:08;5.28;;;2.15;;
39502;SDS011;26970;49.900;10.774;2024-02-21T11:29:39;8.52;;;2.85;;
39502;SDS011;26970;49.900;10.774;2024-02-21T11:32:08;6.80;;;2.17;;
39502;SDS011;26970;49.900;10.774;2024-02-21T11:34:35;7.20;;;2.53;;
39502;SDS011;26970;49.900;10.774;2024-02-21T11:37:00;7.15;;;2.03;;
39502;SDS011;26970;49.900;10.774;2024-02-21T11:39:26;4.93;;;2.03;;
39502;SDS011;26970;49.900;10.774;2024-02-21T11:42:04;10.90;;;2.67;;
39502;SDS011;26970;49.900;10.774;2024-02-21T11:44:32;5.45;;;2.40;;
39502;SDS011;26970;49.900;10.774;2024-02-21T11:46:59;11.35;;;3.17;;
39502;SDS011;26970;49.900;10.774;2024-02-21T11:49:25;7.03;;;2.63;;
39502;SDS011;26970;49.900;10.774;2024-02-21T11:52:01;10.00;;;2.20;;
39502;SDS011;26970;49.900;10.774;2024-02-21T11:54:29;8.20;;;2.25;;
39502;SDS011;26970;49.900;10.774;2024-02-21T11:56:55;6.93;;;2.00;;
39502;SDS011;26970;49.900;10.774;2024-02-21T11:59:21;4.25;;;2.08;;
39502;SDS011;26970;49.900;10.774;2024-02-21T12:01:47;9.10;;;2.28;;
39502;SDS011;26970;49.900;10.774;2024-02-21T12:04:13;12.55;;;3.60;;
39502;SDS011;26970;49.900;10.774;2024-02-21T12:06:42;6.10;;;1.92;;
39502;SDS011;26970;49.900;10.774;2024-02-21T12:09:08;7.57;;;2.30;;
39502;SDS011;26970;49.900;10.774;2024-02-21T12:11:34;6.65;;;2.47;;
39502;SDS011;26970;49.900;10.774;2024-02-21T12:14:00;4.55;;;1.95;;
39502;SDS011;26970;49.900;10.774;2024-02-21T12:16:30;5.35;;;2.05;;
39502;SDS011;26970;49.900;10.774;2024-02-21T12:18:56;8.40;;;2.10;;
39502;SDS011;26970;49.900;10.774;2024-02-21T12:21:26;8.48;;;2.28;;
39502;SDS011;26970;49.900;10.774;2024-02-21T12:23:53;4.28;;;1.73;;
39502;SDS011;26970;49.900;10.774;2024-02-21T12:26:20;4.85;;;1.80;;
39502;SDS011;26970;49.900;10.774;2024-02-21T12:28:45;6.70;;;1.83;;
39502;SDS011;26970;49.900;10.774;2024-02-21T12:31:11;4.75;;;1.95;;
39502;SDS011;26970;49.900;10.774;2024-02-21T12:33:37;9.07;;;2.75;;
39502;SDS011;26970;49.900;10.774;2024-02-21T12:36:03;9.63;;;2.30;;
39502;SDS011;26970;49.900;10.774;2024-02-21T12:38:29;7.43;;;2.60;;
39502;SDS011;26970;49.900;10.774;2024-02-21T12:40:55;5.03;;;1.80;;
39502;SDS011;26970;49.900;10.774;2024-02-21T12:43:22;4.65;;;1.80;;
39502;SDS011;26970;49.900;10.774;2024-02-21T12:45:48;9.00;;;2.22;;
39502;SDS011;26970;49.900;10.774;2024-02-21T12:48:14;7.88;;;2.33;;
39502;SDS011;26970;49.900;10.774;2024-02-21T12:50:40;7.63;;;2.10;;
39502;SDS011;26970;49.900;10.774;2024-02-21T12:53:17;8.68;;;2.10;;
39502;SDS011;26970;49.900;10.774;2024-02-21T12:55:46;4.22;;;1.67;;
39502;SDS011;26970;49.900;10.774;2024-02-21T12:58:15;6.30;;;2.00;;
39502;SDS011;26970;49.900;10.774;2024-02-21T13:00:41;8.95;;;1.88;;
39502;SDS011;26970;49.900;10.774;2024-02-21T13:03:07;5.63;;;1.95;;
39502;SDS011;26970;49.900;10.774;2024-02-21T13:05:35;9.90;;;1.63;;
39502;SDS011;26970;49.900;10.774;2024-02-21T13:08:01;7.72;;;1.95;;
39502;SDS011;26970;49.900;10.774;2024-02-21T13:10:26;3.88;;;1.70;;
39502;SDS011;26970;49.900;10.774;2024-02-21T13:12:52;7.32;;;1.98;;
39502;SDS011;26970;49.900;10.774;2024-02-21T13:15:17;8.43;;;2.95;;
39502;SDS011;26970;49.900;10.774;2024-02-21T13:17:43;12.38;;;5.55;;
39502;SDS011;26970;49.900;10.774;2024-02-21T13:20:10;12.52;;;5.30;;
39502;SDS011;26970;49.900;10.774;2024-02-21T13:22:36;8.32;;;2.90;;
39502;SDS011;26970;49.900;10.774;2024-02-21T13:25:02;11.63;;;5.45;;
39502;SDS011;26970;49.900;10.774;2024-02-21T13:27:28;7.30;;;3.30;;
39502;SDS011;26970;49.900;10.774;2024-02-21T13:29:53;5.28;;;2.20;;
39502;SDS011;26970;49.900;10.774;2024-02-21T13:32:19;10.68;;;5.38;;
39502;SDS011;26970;49.900;10.774;2024-02-21T13:34:45;9.65;;;3.40;;
39502;SDS011;26970;49.900;10.774;2024-02-21T13:37:10;7.22;;;2.97;;
39502;SDS011;26970;49.900;10.774;2024-02-21T13:39:36;9.88;;;3.50;;
39502;SDS011;26970;49.900;10.774;2024-02-21T13:42:02;8.70;;;3.80;;
39502;SDS011;26970;49.900;10.774;2024-02-21T13:44:30;9.05;;;2.97;;
39502;SDS011;26970;49.900;10.774;2024-02-21T13:46:56;11.25;;;3.53;;
39502;SDS011;26970;49.900;10.774;2024-02-21T13:49:22;6.47;;;2.92;;
39502;SDS011;26970;49.900;10.774;2024-02-21T13:51:47;8.07;;;2.38;;
39502;SDS011;26970;49.900;10.774;2024-02-21T13:54:13;6.38;;;2.63;;
39502;SDS011;26970;49.900;10.774;2024-02-21T13:56:42;7.28;;;2.70;;
39502;SDS011;26970;49.900;10.774;2024-02-21T13:59:08;7.70;;;3.72;;
39502;SDS011;26970;49.900;10.774;2024-02-21T14:01:33;5.00;;;2.20;;
39502;SDS011;26970;49.900;10.774;2024-02-21T14:04:00;6.93;;;2.38;;
39502;SDS011;26970;49.900;10.774;2024-02-21T14:06:26;6.60;;;1.80;;
39502;SDS011;26970;49.900;10.774;2024-02-21T14:08:52;3.60;;;1.80;;
39502;SDS011;26970;49.900;10.774;2024-02-21T14:11:18;5.60;;;2.25;;
39502;SDS011;26970;49.900;10.774;2024-02-21T14:13:43;5.45;;;2.00;;
39502;SDS011;26970;49.900;10.774;2024-02-21T14:16:10;4.47;;;2.03;;
39502;SDS011;26970;49.900;10.774;2024-02-21T14:18:38;5.18;;;1.83;;
39502;SDS011;26970;49.900;10.774;2024-02-21T14:21:05;4.90;;;1.70;;
39502;SDS011;26970;49.900;10.774;2024-02-21T14:23:31;4.57;;;2.22;;
39502;SDS011;26970;49.900;10.774;2024-02-21T14:25:58;11.90;;;2.50;;
39502;SDS011;26970;49.900;10.774;2024-02-21T14:28:24;4.90;;;2.03;;
39502;SDS011;26970;49.900;10.774;2024-02-21T14:30:50;6.90;;;1.92;;